Time;durP1;ratioP1;P1;durP2;ratioP2;P2;SDS_P1;SDS_P2;PMS_P1;PMS_P2;Temp;Humidity;BMP_temperature;BMP_pressure;BME280_temperature;BME280_humidity;BME280_pressure;Samples;Min_cycle;Max_cycle;Signal;HPM_P1;HPM_P2
2021/03/17 00:00:51;;;;;;;26.42;11.70;;;;;;;10.61;65.15;99800.78;1776306;80;21171;-45
2021/03/17 00:03:38;;;;;;;20.00;12.15;;;;;;;10.65;65.02;99804.95;1773474;80;21136;-45
2021/03/17 00:06:25;;;;;;;21.15;12.13;;;;;;;10.65;64.91;99801.05;1790042;80;21199;-45
2021/03/17 00:09:13;;;;;;;17.10;10.72;;;;;;;10.64;64.81;99799.34;1790032;80;21113;-45
2021/03/17 00:11:59;;;;;;;15.08;10.45;;;;;;;10.63;64.95;99806.77;1783093;80;21196;-44
2021/03/17 00:14:45;;;;;;;19.70;11.18;;;;;;;10.62;64.92;99805.06;1774346;80;21136;-45
2021/03/17 00:17:33;;;;;;;17.70;10.32;;;;;;;10.60;64.73;99801.22;1778155;80;21318;-45
2021/03/17 00:20:19;;;;;;;19.40;11.57;;;;;;;10.58;64.71;99802.17;1778579;80;21156;-45
2021/03/17 00:23:06;;;;;;;13.00;9.65;;;;;;;10.57;64.71;99805.70;1777625;80;21160;-45
2021/03/17 00:25:52;;;;;;;20.30;10.03;;;;;;;10.55;64.80;99809.63;1776427;80;21147;-46
2021/03/17 00:28:40;;;;;;;15.85;9.43;;;;;;;10.54;64.79;99805.80;1783867;80;21170;-45
2021/03/17 00:31:26;;;;;;;16.12;9.38;;;;;;;10.54;64.71;99799.29;1774595;80;21583;-46
2021/03/17 00:34:12;;;;;;;12.90;9.18;;;;;;;10.56;64.72;99790.53;1783049;80;21136;-46
2021/03/17 00:36:58;;;;;;;12.45;8.43;;;;;;;10.58;64.68;99796.53;1780953;80;21291;-46
2021/03/17 00:39:44;;;;;;;14.65;8.43;;;;;;;10.61;64.67;99790.38;1756700;81;21164;-45
2021/03/17 00:42:31;;;;;;;14.68;8.28;;;;;;;10.65;64.56;99797.16;1764776;81;21168;-46
2021/03/17 00:45:17;;;;;;;17.20;9.40;;;;;;;10.64;64.34;99791.09;1757194;81;21180;-45
2021/03/17 00:48:05;;;;;;;13.75;7.85;;;;;;;10.65;64.20;99799.75;1716891;82;21164;-45
2021/03/17 00:50:33;;;;;;;10.70;6.85;;;;;;;10.65;64.17;99803.66;1757129;81;21137;-46
2021/03/17 00:53:01;;;;;;;9.35;6.60;;;;;;;10.64;64.17;99805.84;1769068;81;21164;-45
2021/03/17 00:55:29;;;;;;;11.12;6.03;;;;;;;10.65;64.13;99806.26;1760009;81;21156;-46
2021/03/17 00:58:10;;;;;;;8.08;5.80;;;;;;;10.65;64.09;99797.16;1727295;82;21127;-46
2021/03/17 01:00:39;;;;;;;9.80;5.62;;;;;;;10.66;64.02;99805.34;1759931;81;21164;-45
2021/03/17 01:03:08;;;;;;;7.20;4.95;;;;;;;10.65;64.07;99797.16;1728477;82;21176;-46
2021/03/17 01:05:36;;;;;;;9.40;4.95;;;;;;;10.63;64.09;99793.77;1726617;82;21169;-45
2021/03/17 01:08:05;;;;;;;10.48;4.17;;;;;;;10.65;64.19;99797.16;1726795;82;21156;-45
2021/03/17 01:10:41;;;;;;;6.50;4.10;;;;;;;10.67;64.07;99792.74;1728883;82;21199;-46
2021/03/17 01:13:09;;;;;;;8.78;4.90;;;;;;;10.67;63.98;99790.14;1745913;81;21258;-45
2021/03/17 01:15:37;;;;;;;7.28;4.03;;;;;;;10.67;64.01;99793.19;1752440;81;21297;-46
2021/03/17 01:18:06;;;;;;;6.08;3.33;;;;;;;10.67;63.97;99789.28;1751444;82;21564;-45
2021/03/17 01:20:35;;;;;;;5.67;3.25;;;;;;;10.68;63.96;99791.81;1752598;81;21302;-45
2021/03/17 01:23:03;;;;;;;6.20;3.27;;;;;;;10.70;63.88;99784.80;1752245;81;21144;-45
2021/03/17 01:25:38;;;;;;;7.28;3.40;;;;;;;10.71;63.90;99789.12;1752520;82;21196;-45
2021/03/17 01:28:07;;;;;;;6.58;2.60;;;;;;;10.71;63.88;99785.22;1746060;82;21184;-46
2021/03/17 01:30:40;;;;;;;6.47;2.85;;;;;;;10.73;63.82;99787.30;1752544;81;21632;-46
2021/03/17 01:33:15;;;;;;;4.97;2.72;;;;;;;10.80;63.73;99783.55;1771468;79;22597;-46
2021/03/17 01:35:45;;;;;;;8.65;2.85;;;;;;;10.76;63.64;99781.97;1736230;82;21155;-46
2021/03/17 01:38:13;;;;;;;5.95;3.00;;;;;;;10.75;63.51;99785.49;1738424;82;21557;-46
2021/03/17 01:40:44;;;;;;;10.10;3.33;;;;;;;10.76;63.43;99788.48;1735046;82;21171;-46
2021/03/17 01:43:12;;;;;;;7.70;3.40;;;;;;;10.74;63.42;99781.18;1740744;82;21542;-46
2021/03/17 01:45:40;;;;;;;9.55;3.25;;;;;;;10.74;63.36;99788.98;1744439;82;21267;-46
2021/03/17 01:48:09;;;;;;;9.03;3.70;;;;;;;10.74;63.12;99780.36;1732200;82;21588;-46
2021/03/17 01:50:41;;;;;;;10.53;2.72;;;;;;;10.71;63.07;99785.22;1743128;82;21140;-46
2021/03/17 01:53:14;;;;;;;5.20;2.25;;;;;;;10.69;62.95;99781.83;1737770;82;21147;-46
2021/03/17 01:55:42;;;;;;;5.65;2.42;;;;;;;10.67;62.93;99784.94;1660368;84;21182;-46
2021/03/17 01:58:11;;;;;;;7.40;2.27;;;;;;;10.66;62.99;99783.22;1687028;84;21171;-46
2021/03/17 02:00:40;;;;;;;6.75;2.33;;;;;;;10.64;63.04;99785.03;1673031;85;21171;-46
2021/03/17 02:03:09;;;;;;;6.62;2.02;;;;;;;10.65;62.93;99785.45;1684219;84;21564;-46
2021/03/17 02:05:42;;;;;;;5.92;2.02;;;;;;;10.64;62.78;99788.94;1685065;84;21241;-46
2021/03/17 02:08:19;;;;;;;5.62;1.70;;;;;;;10.65;62.89;99795.37;1810165;79;22842;-46
2021/03/17 02:10:47;;;;;;;5.37;1.80;;;;;;;10.61;62.89;99791.19;1789356;80;21156;-46
2021/03/17 02:13:54;;;;;;;3.83;1.60;;;;;;;10.62;62.75;99801.16;1779491;80;21172;-46
2021/03/17 02:16:30;;;;;;;6.70;2.17;;;;;;;10.61;62.55;99802.08;1770870;80;21108;-46
2021/03/17 02:19:32;;;;;;;3.47;1.52;;;;;;;10.63;62.38;99804.17;1773039;79;22954;-46
2021/03/17 02:22:35;;;;;;;5.30;1.20;;;;;;;10.59;62.36;99809.09;1744585;82;21168;-46
2021/03/17 02:25:26;;;;;;;4.22;1.70;;;;;;;10.57;62.16;99812.20;1737618;81;21278;-45
2021/03/17 02:28:24;;;;;;;3.58;1.00;;;;;;;10.52;62.20;99812.36;1738342;82;21137;-46
2021/03/17 02:31:23;;;;;;;3.98;1.47;;;;;;;10.51;62.09;99818.45;1740109;82;21148;-46
2021/03/17 02:33:57;;;;;;;3.75;1.20;;;;;;;10.49;62.16;99822.00;1741492;82;21188;-46
2021/03/17 02:36:41;;;;;;;3.85;1.75;;;;;;;10.50;62.31;99823.27;1741061;82;21608;-46
2021/03/17 02:39:23;;;;;;;2.30;1.45;;;;;;;10.52;62.30;99819.30;1741088;82;21145;-47
2021/03/17 02:42:18;;;;;;;5.20;2.22;;;;;;;10.54;62.18;99826.16;1736004;82;21160;-44
2021/03/17 02:44:55;;;;;;;4.22;1.50;;;;;;;10.55;62.14;99825.72;1730423;82;21148;-45
2021/03/17 02:47:23;;;;;;;3.62;1.80;;;;;;;10.54;62.25;99831.80;1733915;81;21164;-45
2021/03/17 02:49:51;;;;;;;5.65;1.82;;;;;;;10.55;62.23;99842.63;1739002;82;21640;-45
2021/03/17 02:52:18;;;;;;;5.12;1.92;;;;;;;10.54;62.18;99831.80;1736356;82;21141;-45
2021/03/17 02:54:47;;;;;;;4.15;1.47;;;;;;;10.56;62.23;99841.70;1736368;82;21291;-45
2021/03/17 02:57:18;;;;;;;7.60;1.70;;;;;;;10.55;62.17;99838.24;1710957;82;21342;-45
2021/03/17 02:59:53;;;;;;;8.18;3.10;;;;;;;10.56;62.14;99836.50;1738493;82;21637;-45
2021/03/17 03:02:21;;;;;;;6.20;1.90;;;;;;;10.55;62.30;99842.63;1739192;82;21164;-45
2021/03/17 03:04:50;;;;;;;7.60;2.40;;;;;;;10.57;62.20;99836.91;1740187;82;21144;-45
2021/03/17 03:07:18;;;;;;;11.18;2.70;;;;;;;10.55;62.18;99834.34;1741096;82;21160;-45
2021/03/17 03:09:46;;;;;;;9.75;2.62;;;;;;;10.56;62.17;99837.80;1741124;82;21282;-45
2021/03/17 03:12:14;;;;;;;12.47;2.83;;;;;;;10.56;62.11;99836.50;1658390;85;21377;-45
2021/03/17 03:14:42;;;;;;;7.92;2.67;;;;;;;10.53;62.17;99837.45;1674884;85;21277;-45
2021/03/17 03:17:10;;;;;;;7.58;3.00;;;;;;;10.54;62.18;99834.41;1669398;84;21246;-45
2021/03/17 03:19:47;;;;;;;9.53;2.77;;;;;;;10.53;62.23;99830.95;1685264;84;21187;-45
2021/03/17 03:22:15;;;;;;;9.95;2.58;;;;;;;10.54;62.23;99833.11;1685134;84;21167;-45
2021/03/17 03:24:43;;;;;;;6.15;2.10;;;;;;;10.55;62.16;99840.02;1686864;84;21617;-45
2021/03/17 03:27:12;;;;;;;11.88;2.30;;;;;;;10.53;62.14;99844.43;1685501;84;21144;-45
2021/03/17 03:29:40;;;;;;;6.05;2.25;;;;;;;10.52;62.12;99844.88;1690796;83;21171;-45
2021/03/17 03:32:09;;;;;;;9.15;2.60;;;;;;;10.49;62.36;99846.27;1687400;84;21737;-45
2021/03/17 03:34:37;;;;;;;4.67;1.65;;;;;;;10.52;62.52;99854.42;1685783;84;21636;-45
2021/03/17 03:37:06;;;;;;;7.40;2.08;;;;;;;10.53;62.49;99856.13;1718990;81;21156;-46
2021/03/17 03:39:34;;;;;;;4.80;1.80;;;;;;;10.55;62.42;99856.92;1746322;81;21168;-45
2021/03/17 03:42:03;;;;;;;7.90;2.30;;;;;;;10.57;62.28;99855.13;1745497;81;21160;-45
2021/03/17 03:44:33;;;;;;;6.53;1.95;;;;;;;10.58;62.32;99855.05;1744227;81;21184;-45
2021/03/17 03:47:01;;;;;;;7.60;2.10;;;;;;;10.58;62.32;99850.30;1742355;81;21160;-46
2021/03/17 03:49:29;;;;;;;7.33;2.42;;;;;;;10.57;62.38;99848.62;1748902;81;21624;-46
2021/03/17 03:52:13;;;;;;;4.60;1.80;;;;;;;10.59;62.21;99853.31;1747795;81;21176;-46
2021/03/17 03:55:13;;;;;;;4.00;1.87;;;;;;;10.57;62.31;99852.52;1711950;83;21180;-46
2021/03/17 03:57:48;;;;;;;9.98;2.60;;;;;;;10.58;62.40;99848.55;1772399;79;23575;-46
2021/03/17 04:00:20;;;;;;;6.70;2.37;;;;;;;10.53;62.41;99850.45;1741056;82;21350;-46
2021/03/17 04:02:50;;;;;;;6.05;2.45;;;;;;;10.54;62.48;99856.52;1741224;82;21156;-46
2021/03/17 04:05:22;;;;;;;5.72;2.12;;;;;;;10.54;62.51;99852.17;1740122;82;21168;-45
2021/03/17 04:07:51;;;;;;;4.35;2.12;;;;;;;10.56;62.52;99856.01;1738378;82;21185;-46
2021/03/17 04:10:22;;;;;;;10.15;2.10;;;;;;;10.55;62.51;99849.13;1739593;82;21152;-46
2021/03/17 04:12:53;;;;;;;5.30;2.22;;;;;;;10.55;62.52;99850.42;1740310;82;21188;-46
2021/03/17 04:15:21;;;;;;;11.03;2.92;;;;;;;10.55;62.52;99861.66;1736970;82;21160;-46
2021/03/17 04:18:00;;;;;;;5.00;2.30;;;;;;;10.57;62.55;99853.82;1699748;82;21161;-46
2021/03/17 04:20:31;;;;;;;12.30;2.37;;;;;;;10.59;62.49;99852.01;1741165;82;21125;-46
2021/03/17 04:22:59;;;;;;;15.15;4.17;;;;;;;10.59;62.49;99845.03;1693347;84;21196;-46
2021/03/17 04:25:27;;;;;;;14.13;3.60;;;;;;;10.58;62.47;99849.00;1684674;84;21230;-46
2021/03/17 04:27:54;;;;;;;11.40;3.52;;;;;;;10.60;62.55;99844.14;1690982;84;21639;-46
2021/03/17 04:30:24;;;;;;;11.50;3.40;;;;;;;10.62;62.57;99842.78;1670005;84;21152;-46
2021/03/17 04:32:54;;;;;;;10.45;3.22;;;;;;;10.61;62.42;99843.22;1668211;84;21178;-46
2021/03/17 04:35:22;;;;;;;6.17;2.70;;;;;;;10.58;62.58;99845.09;1690492;84;21199;-46
2021/03/17 04:37:54;;;;;;;10.98;4.67;;;;;;;10.55;62.60;99847.83;1688993;84;21259;-46
2021/03/17 04:40:22;;;;;;;9.28;3.25;;;;;;;10.54;62.73;99848.71;1691420;84;21203;-46
2021/03/17 04:42:49;;;;;;;6.10;2.40;;;;;;;10.52;62.97;99850.52;1692472;84;21277;-46
2021/03/17 04:45:17;;;;;;;13.58;3.37;;;;;;;10.53;63.06;99849.63;1689435;84;21183;-46
2021/03/17 04:47:46;;;;;;;5.87;2.50;;;;;;;10.56;63.09;99852.11;1690021;84;21370;-44
2021/03/17 04:50:17;;;;;;;6.80;2.10;;;;;;;10.59;63.09;99852.01;1667452;84;21212;-44
2021/03/17 04:52:45;;;;;;;4.00;2.20;;;;;;;10.58;63.10;99848.55;1690615;84;21275;-45
2021/03/17 04:55:16;;;;;;;5.17;1.90;;;;;;;10.60;63.19;99848.48;1690841;84;21189;-44
2021/03/17 04:57:45;;;;;;;4.78;1.90;;;;;;;10.60;63.07;99844.14;1677975;85;21168;-44
2021/03/17 05:00:18;;;;;;;2.58;1.40;;;;;;;10.61;62.94;99846.30;1675763;85;21187;-44
2021/03/17 05:03:00;;;;;;;3.45;1.55;;;;;;;10.62;62.73;99854.48;1675709;85;21220;-44
2021/03/17 05:05:34;;;;;;;5.53;1.82;;;;;;;10.65;62.70;99849.19;1832314;77;21555;-46
2021/03/17 05:08:06;;;;;;;5.08;1.60;;;;;;;10.60;62.67;99864.09;1836544;77;21128;-46
2021/03/17 05:10:34;;;;;;;2.70;1.60;;;;;;;10.57;62.71;99868.95;1834491;77;21172;-46
2021/03/17 05:13:02;;;;;;;6.65;1.98;;;;;;;10.57;62.80;99869.42;1826207;77;21274;-46
2021/03/17 05:15:30;;;;;;;9.75;2.95;;;;;;;10.56;62.79;99867.71;1826415;77;21517;-46
2021/03/17 05:18:00;;;;;;;5.58;1.87;;;;;;;10.56;62.89;99872.92;1810028;77;21160;-46
2021/03/17 05:20:28;;;;;;;8.95;2.20;;;;;;;10.60;63.01;99871.91;1819082;77;21164;-46
2021/03/17 05:22:57;;;;;;;4.47;2.08;;;;;;;10.64;63.05;99870.89;1790347;80;21154;-46
2021/03/17 05:25:25;;;;;;;4.75;2.15;;;;;;;10.68;63.10;99867.27;1762512;80;21137;-46
2021/03/17 05:27:56;;;;;;;3.92;2.02;;;;;;;10.75;62.79;99872.66;1791986;80;21134;-46
2021/03/17 05:30:24;;;;;;;4.58;1.62;;;;;;;10.79;62.78;99875.99;1791704;80;21153;-46
2021/03/17 05:32:53;;;;;;;5.08;1.57;;;;;;;10.83;62.56;99873.23;1771770;80;21619;-46
2021/03/17 05:35:22;;;;;;;4.83;2.00;;;;;;;10.85;62.59;99877.92;1775585;80;21156;-46
2021/03/17 05:37:50;;;;;;;12.05;2.67;;;;;;;10.88;62.68;99885.60;1790181;80;21608;-46
2021/03/17 05:40:19;;;;;;;5.03;2.12;;;;;;;10.91;62.58;99876.39;1790213;80;21132;-46
2021/03/17 05:42:47;;;;;;;5.83;2.20;;;;;;;10.96;62.46;99878.39;1776232;80;21155;-46
2021/03/17 05:45:19;;;;;;;7.37;2.05;;;;;;;10.99;62.30;99877.41;1790895;80;21142;-46
2021/03/17 05:47:51;;;;;;;4.00;2.08;;;;;;;11.03;62.28;99877.23;1788010;79;21156;-46
2021/03/17 05:50:20;;;;;;;2.60;1.47;;;;;;;11.07;62.25;99875.36;1797865;79;21159;-46
2021/03/17 05:52:49;;;;;;;4.70;1.85;;;;;;;11.13;62.28;99873.83;1792750;79;21307;-46
2021/03/17 05:55:17;;;;;;;4.42;2.10;;;;;;;11.16;61.96;99875.88;1777680;80;21604;-46
2021/03/17 05:57:45;;;;;;;4.05;1.72;;;;;;;11.22;61.81;99876.95;1772092;80;21307;-46
2021/03/17 06:00:17;;;;;;;5.40;1.55;;;;;;;11.25;61.71;99879.42;1770486;80;21333;-46
2021/03/17 06:02:44;;;;;;;;;;;;;;;11.27;61.58;99877.60;1794549;80;21157;-46
2021/03/17 06:05:14;;;;;;;7.00;1.98;;;;;;;11.30;61.65;99880.11;1772060;80;20294;-46
2021/03/17 06:08:06;;;;;;;5.43;1.67;;;;;;;11.36;61.76;99883.77;1739398;82;21152;-46
2021/03/17 06:10:35;;;;;;;7.17;1.97;;;;;;;11.57;61.86;99886.44;1806569;78;21128;-46
2021/03/17 06:13:12;;;;;;;4.55;1.65;;;;;;;11.90;60.98;99885.13;1810924;78;21136;-45
2021/03/17 06:15:59;;;;;;;2.80;1.37;;;;;;;12.14;59.95;99881.50;1808894;78;21160;-46
2021/03/17 06:18:36;;;;;;;4.10;2.08;;;;;;;12.28;58.95;99883.11;1800733;78;21144;-46
2021/03/17 06:21:05;;;;;;;4.60;1.32;;;;;;;12.31;58.51;99889.48;1808767;78;21113;-46
2021/03/17 06:23:33;;;;;;;2.85;1.47;;;;;;;12.28;58.52;99888.32;1805409;78;21561;-46
2021/03/17 06:26:03;;;;;;;3.65;1.45;;;;;;;12.36;58.54;99892.75;1805033;78;21746;-46
2021/03/17 06:28:31;;;;;;;6.12;1.80;;;;;;;12.45;58.01;99891.04;1813718;78;21140;-46
2021/03/17 06:30:59;;;;;;;4.53;1.30;;;;;;;12.51;57.80;99889.95;1803359;78;21132;-46
2021/03/17 06:33:27;;;;;;;3.25;1.27;;;;;;;12.54;57.80;99884.13;1816409;78;21549;-46
2021/03/17 06:36:12;;;;;;;1.87;1.20;;;;;;;12.59;57.31;99887.37;1797642;78;21533;-46
2021/03/17 06:38:41;;;;;;;3.22;1.12;;;;;;;12.67;56.90;99890.97;1793637;78;21164;-46
2021/03/17 06:41:10;;;;;;;7.15;1.75;;;;;;;12.73;56.89;99889.40;1817510;78;21139;-46
2021/03/17 06:43:49;;;;;;;5.12;1.72;;;;;;;12.84;56.75;99892.36;1782730;78;21164;-46
2021/03/17 06:46:18;;;;;;;6.72;1.60;;;;;;;12.96;56.83;99893.97;1808201;78;21529;-46
2021/03/17 06:48:49;;;;;;;4.25;1.42;;;;;;;13.14;56.52;99898.02;1795232;78;21115;-45
2021/03/17 06:51:20;;;;;;;4.28;1.30;;;;;;;13.28;56.20;99895.61;1801504;78;21200;-45
2021/03/17 06:53:56;;;;;;;3.05;1.20;;;;;;;13.44;55.51;99899.20;1809862;78;21128;-45
2021/03/17 06:56:36;;;;;;;3.30;1.50;;;;;;;13.56;54.89;99903.88;1799580;78;21290;-45
2021/03/17 06:59:08;;;;;;;3.55;1.25;;;;;;;13.60;54.29;99904.94;1804062;78;21151;-45
2021/03/17 07:01:42;;;;;;;4.62;1.27;;;;;;;13.61;53.95;99908.41;1803384;78;21131;-46
2021/03/17 07:04:24;;;;;;;2.62;1.12;;;;;;;13.60;53.65;99900.20;1809003;77;21127;-46
2021/03/17 07:07:02;;;;;;;1.62;0.85;;;;;;;13.59;53.62;99903.72;1815148;78;21128;-45
2021/03/17 07:09:32;;;;;;;2.27;1.05;;;;;;;13.58;53.37;99896.81;1808743;78;21117;-45
2021/03/17 07:12:08;;;;;;;3.98;1.27;;;;;;;13.51;53.53;99898.01;1827663;78;21572;-46
2021/03/17 07:14:44;;;;;;;3.45;1.30;;;;;;;13.48;53.62;99895.52;1760197;81;21653;-45
2021/03/17 07:17:27;;;;;;;2.08;1.30;;;;;;;13.45;53.80;99898.30;1744352;81;21175;-45
2021/03/17 07:19:56;;;;;;;3.02;1.35;;;;;;;13.41;54.18;99906.75;1755242;81;21136;-45
2021/03/17 07:22:24;;;;;;;2.77;1.30;;;;;;;13.36;54.77;99903.48;1758835;81;22055;-45
2021/03/17 07:24:54;;;;;;;2.05;1.02;;;;;;;13.30;54.68;99899.00;1753307;81;21148;-45
2021/03/17 07:27:25;;;;;;;5.12;1.50;;;;;;;13.18;54.66;99899.56;1780914;79;21150;-45
2021/03/17 07:30:06;;;;;;;2.15;1.10;;;;;;;13.05;55.28;99912.33;1760129;80;21164;-45
2021/03/17 07:32:59;;;;;;;4.97;1.72;;;;;;;13.00;55.39;99909.89;1739357;81;21151;-45
2021/03/17 07:35:32;;;;;;;2.92;1.42;;;;;;;12.96;55.38;99907.02;1763904;80;21129;-45
2021/03/17 07:38:11;;;;;;;5.75;1.57;;;;;;;12.87;55.32;99916.59;1741990;81;21171;-45
2021/03/17 07:40:45;;;;;;;6.35;1.50;;;;;;;12.77;55.35;99919.67;1752507;81;21278;-45
2021/03/17 07:43:15;;;;;;;3.77;1.27;;;;;;;12.66;55.89;99916.22;1700822;83;21412;-45
2021/03/17 07:45:44;;;;;;;5.40;1.32;;;;;;;12.59;56.19;99918.69;1743462;80;21301;-45
2021/03/17 07:48:13;;;;;;;4.33;1.27;;;;;;;12.57;57.24;99914.47;1761858;80;21156;-45
2021/03/17 07:50:42;;;;;;;9.73;2.10;;;;;;;12.56;57.03;99924.06;1767675;80;21604;-45
2021/03/17 07:53:20;;;;;;;2.92;1.65;;;;;;;12.54;56.80;99927.19;1765711;80;21140;-45
2021/03/17 07:55:56;;;;;;;2.17;1.40;;;;;;;12.55;57.30;99932.78;1770708;79;23362;-46
2021/03/17 07:58:24;;;;;;;3.83;1.70;;;;;;;12.44;57.42;99928.50;1737120;82;21128;-46
2021/03/17 08:00:53;;;;;;;4.17;1.47;;;;;;;12.35;57.47;99935.39;1738764;82;21128;-46
2021/03/17 08:03:22;;;;;;;4.00;1.35;;;;;;;12.26;57.53;99934.49;1696993;83;21135;-46
2021/03/17 08:05:50;;;;;;;7.00;1.40;;;;;;;12.22;58.10;99938.96;1695239;84;21365;-46
2021/03/17 08:08:18;;;;;;;3.58;1.27;;;;;;;12.16;58.08;99938.36;1690101;84;21588;-46
2021/03/17 08:10:48;;;;;;;4.30;1.37;;;;;;;12.10;58.11;99934.70;1705452;84;21631;-46
2021/03/17 08:13:16;;;;;;;4.12;1.70;;;;;;;12.11;58.26;99936.41;1683210;84;21314;-46
2021/03/17 08:15:46;;;;;;;3.58;1.25;;;;;;;12.11;58.71;99945.09;1677525;84;21262;-46
2021/03/17 08:18:36;;;;;;;4.25;1.20;;;;;;;12.14;58.31;99941.48;1733844;81;21140;-46
2021/03/17 08:21:05;;;;;;;3.47;1.40;;;;;;;12.16;58.16;99940.97;1733285;82;21111;-46
2021/03/17 08:26:36;;;;;;;5.87;1.85;;;;;;;12.23;58.74;99936.77;1804533;79;26017;-47
2021/03/17 08:29:03;;;;;;;10.70;2.27;;;;;;;12.21;58.82;99940.34;1777304;80;21305;-46
2021/03/17 08:31:43;;;;;;;7.20;1.95;;;;;;;12.22;58.89;99938.10;1726548;80;21156;-46
2021/03/17 08:34:24;;;;;;;4.83;1.77;;;;;;;12.21;58.50;99940.34;1784934;79;21105;-47
2021/03/17 08:36:58;;;;;;;4.58;1.70;;;;;;;12.21;58.40;99946.86;1654735;86;21190;-45
2021/03/17 08:39:39;;;;;;;4.67;1.80;;;;;;;12.19;58.21;99938.25;1653254;86;21170;-45
2021/03/17 08:42:31;;;;;;;4.72;1.87;;;;;;;12.21;58.22;99937.73;1651537;85;21171;-44
2021/03/17 08:45:00;;;;;;;3.22;1.60;;;;;;;12.19;58.34;99941.71;1644944;86;21190;-44
2021/03/17 08:47:35;;;;;;;1.75;1.10;;;;;;;12.18;58.56;99937.84;1655836;86;21188;-45
2021/03/17 08:50:30;;;;;;;3.02;1.62;;;;;;;12.23;58.63;99941.13;1657167;86;21336;-45
2021/03/17 08:52:57;;;;;;;6.65;2.08;;;;;;;12.29;59.14;99943.47;1643272;86;21668;-45
2021/03/17 08:55:37;;;;;;;3.22;1.47;;;;;;;12.36;58.73;99932.33;1649355;86;21224;-45
2021/03/17 08:58:09;;;;;;;1.77;1.12;;;;;;;12.43;58.71;99933.30;1653049;86;21173;-45
2021/03/17 09:00:59;;;;;;;1.77;1.10;;;;;;;12.56;57.87;99933.64;1817526;77;23368;-46
2021/03/17 09:03:36;;;;;;;2.50;1.37;;;;;;;12.55;57.65;99930.17;1766907;81;21624;-46
2021/03/17 09:06:23;;;;;;;1.47;1.30;;;;;;;12.60;58.01;99935.20;1746444;81;21204;-46
2021/03/17 09:09:00;;;;;;;1.87;1.20;;;;;;;12.65;58.12;99938.00;1754611;81;21286;-46
2021/03/17 09:11:37;;;;;;;3.15;1.45;;;;;;;12.70;58.11;99942.58;1764054;81;21376;-47
2021/03/17 09:14:07;;;;;;;2.92;1.37;;;;;;;12.76;57.86;99943.61;1762281;81;21586;-46
2021/03/17 09:16:39;;;;;;;2.77;1.00;;;;;;;12.83;57.81;99938.53;1757669;81;21541;-46
2021/03/17 09:19:12;;;;;;;2.25;1.12;;;;;;;12.87;57.25;99937.48;1751362;81;21218;-46
2021/03/17 09:21:44;;;;;;;1.90;1.30;;;;;;;12.90;56.80;99933.41;1757382;81;21240;-46
2021/03/17 09:24:31;;;;;;;;;;;;;;;12.85;56.90;99938.45;1738757;82;21159;-44
2021/03/17 09:27:06;;;;;;;3.90;1.92;;;;;;;12.81;57.31;99935.14;1748536;81;20555;-46
2021/03/17 09:29:39;;;;;;;1.85;1.47;;;;;;;12.78;57.58;99932.65;1767582;79;23583;-47
2021/03/17 09:32:07;;;;;;;3.00;1.47;;;;;;;12.75;57.58;99938.02;1731558;82;21612;-46
2021/03/17 09:34:36;;;;;;;1.95;1.05;;;;;;;12.77;56.93;99947.94;1673720;82;21171;-47
2021/03/17 09:37:07;;;;;;;2.90;1.87;;;;;;;12.80;56.93;99947.78;1733109;82;21117;-46
2021/03/17 09:39:36;;;;;;;3.35;2.62;;;;;;;12.85;56.75;99944.53;1734241;82;21152;-47
2021/03/17 09:42:04;;;;;;;4.80;2.60;;;;;;;12.84;56.30;99948.04;1742953;82;21135;-46
2021/03/17 09:44:34;;;;;;;4.40;2.10;;;;;;;12.81;56.18;99948.20;1729220;81;21604;-46
2021/03/17 09:47:02;;;;;;;2.00;1.67;;;;;;;12.82;56.32;99955.09;1742675;82;21165;-46
2021/03/17 09:49:30;;;;;;;1.42;1.00;;;;;;;12.88;56.09;99950.91;1742815;82;21124;-46
2021/03/17 09:52:03;;;;;;;4.40;1.67;;;;;;;12.97;56.10;99956.19;1741459;82;21157;-47
2021/03/17 09:54:33;;;;;;;2.77;1.27;;;;;;;13.04;56.10;99950.66;1745396;82;21175;-46
2021/03/17 09:57:04;;;;;;;2.62;2.22;;;;;;;13.13;55.94;99951.19;1738783;82;21113;-46
2021/03/17 09:59:43;;;;;;;4.15;2.22;;;;;;;13.20;55.75;99948.22;1740149;82;21149;-46
2021/03/17 10:04:56;;;;;;;2.90;1.80;;;;;;;13.32;55.80;99941.58;1807557;79;22896;-46
2021/03/17 10:07:26;;;;;;;4.07;2.13;;;;;;;13.31;56.05;99947.73;1731392;83;21183;-46
2021/03/17 10:09:56;;;;;;;2.05;1.57;;;;;;;13.32;56.09;99946.81;1729852;83;21796;-46
2021/03/17 10:12:31;;;;;;;4.03;1.60;;;;;;;13.37;55.74;99939.62;1713402;83;21204;-47
2021/03/17 10:15:09;;;;;;;4.37;1.87;;;;;;;13.38;55.21;99946.52;1727693;83;21140;-46
2021/03/17 10:17:37;;;;;;;2.05;1.47;;;;;;;13.39;55.52;99941.25;1731093;83;21144;-46
2021/03/17 10:20:13;;;;;;;2.52;1.77;;;;;;;13.43;55.03;99945.87;1725110;83;21227;-46
2021/03/17 10:22:41;;;;;;;1.95;1.80;;;;;;;13.44;55.36;99944.94;1731165;83;21143;-46
2021/03/17 10:25:17;;;;;;;3.42;1.30;;;;;;;13.48;55.53;99945.18;1731160;83;21238;-47
2021/03/17 10:27:54;;;;;;;2.90;1.60;;;;;;;13.51;55.15;99948.97;1774665;79;23101;-46
2021/03/17 10:30:34;;;;;;;3.42;2.08;;;;;;;13.44;54.86;99954.08;1737990;82;21112;-47
2021/03/17 10:33:08;;;;;;;2.37;1.70;;;;;;;13.35;55.01;99959.30;1733966;82;21144;-46
2021/03/17 10:35:36;;;;;;;2.42;1.80;;;;;;;13.27;55.37;99956.64;1734323;82;21644;-45
2021/03/17 10:38:04;;;;;;;2.30;1.60;;;;;;;13.21;55.43;99962.14;1735771;82;21128;-46
2021/03/17 10:40:32;;;;;;;3.05;1.92;;;;;;;13.17;55.75;99960.58;1697538;82;21163;-44
2021/03/17 10:43:12;;;;;;;3.70;1.80;;;;;;;13.14;56.25;99962.01;1731728;82;21139;-42
2021/03/17 10:45:53;;;;;;;2.77;2.33;;;;;;;13.02;56.75;99962.08;1730043;82;21180;-47
2021/03/17 10:48:24;;;;;;;4.08;2.50;;;;;;;12.84;57.43;99967.62;1739853;82;21292;-48
2021/03/17 10:50:53;;;;;;;2.62;2.40;;;;;;;12.75;57.95;99971.09;1738863;82;21585;-45
2021/03/17 10:53:23;;;;;;;3.70;2.40;;;;;;;12.69;57.99;99967.00;1736120;82;21176;-43
2021/03/17 10:56:00;;;;;;;4.97;2.52;;;;;;;12.59;58.33;99964.36;1732343;82;21160;-42
2021/03/17 10:58:30;;;;;;;3.95;2.45;;;;;;;12.54;58.58;99970.70;1737146;82;21105;-44
2021/03/17 11:01:01;;;;;;;5.97;3.10;;;;;;;12.49;58.73;99963.05;1731724;82;21136;-48
2021/03/17 11:03:40;;;;;;;6.22;3.50;;;;;;;12.38;59.08;99966.59;1639260;87;21214;-48
2021/03/17 11:06:17;;;;;;;2.45;2.20;;;;;;;12.31;59.33;99967.73;1637978;87;21215;-47
2021/03/17 11:08:52;;;;;;;5.45;2.22;;;;;;;12.25;59.78;99968.84;1640324;87;21657;-46
2021/03/17 11:11:26;;;;;;;6.53;2.77;;;;;;;12.34;59.74;99958.94;1806957;79;22912;-42
2021/03/17 11:13:54;;;;;;;5.78;3.02;;;;;;;12.28;59.71;99970.48;1767587;80;21171;-46
2021/03/17 11:16:35;;;;;;;6.60;2.92;;;;;;;12.29;59.83;99963.04;1743566;81;21213;-44
2021/03/17 11:19:11;;;;;;;4.12;2.62;;;;;;;12.27;59.66;99963.56;1708966;83;21183;-44
2021/03/17 11:21:40;;;;;;;8.70;2.62;;;;;;;12.25;59.57;99961.47;1714594;83;21178;-46
2021/03/17 11:24:17;;;;;;;5.03;2.75;;;;;;;12.19;59.89;99969.55;1743487;81;21207;-48
2021/03/17 11:26:45;;;;;;;5.05;3.30;;;;;;;12.18;60.07;99969.14;1722224;82;21633;-48
2021/03/17 11:29:23;;;;;;;7.37;3.17;;;;;;;12.15;60.16;99962.75;1728540;82;21143;-46
2021/03/17 11:31:54;;;;;;;6.62;3.02;;;;;;;12.14;60.66;99968.87;1725097;82;21273;-42
2021/03/17 11:34:23;;;;;;;5.87;3.33;;;;;;;12.15;60.66;99965.36;1735858;82;21719;-43
2021/03/17 11:36:51;;;;;;;4.53;2.90;;;;;;;12.14;60.43;99964.95;1731065;82;21176;-46
2021/03/17 11:39:19;;;;;;;4.22;2.40;;;;;;;12.04;60.59;99968.84;1733938;82;21191;-45
2021/03/17 11:41:48;;;;;;;4.40;2.70;;;;;;;11.91;60.78;99971.57;1730535;82;21543;-46
2021/03/17 11:44:19;;;;;;;3.85;2.77;;;;;;;11.84;60.97;99968.80;1728826;82;21148;-44
2021/03/17 11:46:49;;;;;;;5.15;2.67;;;;;;;11.82;61.21;99959.73;1746788;81;21307;-49
2021/03/17 11:49:18;;;;;;;5.40;2.30;;;;;;;11.83;61.20;99956.20;1745349;81;21160;-41
2021/03/17 11:51:46;;;;;;;3.17;2.47;;;;;;;11.86;61.26;99957.85;1724541;83;21160;-46
2021/03/17 11:54:15;;;;;;;5.25;2.70;;;;;;;11.90;61.35;99955.52;1719982;83;21271;-44
2021/03/17 11:56:43;;;;;;;2.55;2.35;;;;;;;11.91;61.38;99952.02;1717182;83;21843;-44
2021/03/17 11:59:11;;;;;;;3.90;2.60;;;;;;;11.97;61.19;99946.56;1719609;83;21140;-45
2021/03/17 12:01:39;;;;;;;3.87;2.35;;;;;;;12.01;61.07;99946.83;1721408;83;21163;-46
2021/03/17 12:04:07;;;;;;;4.28;2.42;;;;;;;12.09;61.04;99950.83;1739534;81;21715;-46
2021/03/17 12:06:37;;;;;;;3.65;2.47;;;;;;;12.19;60.93;99952.59;1709391;83;21196;-42